Latest Weather Observations for Moomba Airport

IDS60801

Issued at 4:31 am CDT Tuesday 15 October 2019 (issued every 10 minutes, with the page automatically refreshed every 10 minutes)

About weather observations | Map of weather stations | Latest weather observations for SA | Other Formats
Station Details ID: 017123 Name: MOOMBA AIRPORT Lat: -28.10 Lon: 140.20 Height: 37.8 m
Data from the previous 72 hours. | See also: Recent months at Moomba Airport
Date/Time
CDT
Temp
°C
App
Temp
°C
Dew
Point
°C
Rel
Hum
%
Delta-T
°C
Wind Press
QNH
hPa
Press
MSL
hPa
Rain since
9am
mm
Dir  Spd
km/h
Gust
km/h
Spd
kts
Gust
kts
15/04:30am 19.6 15.5 -0.4 26 8.7 SW 11 13 6 7 1012.1 1012.0 0.2
15/04:00am 19.4 15.6 -0.6 26 8.7 SW 9 22 5 12 1011.9 1011.7 0.2
15/03:30am 19.9 16.2 -0.1 26 8.8 SSW 9 11 5 6 1011.8 1011.6 0.0
15/03:00am 20.5 17.3 -0.7 24 9.3 SW 6 7 3 4 1012.0 1011.8 0.0
15/02:30am 21.7 18.6 0.3 24 9.7 SSW 6 7 3 4 1012.2 1012.1 0.0
15/02:00am 22.9 19.4 1.3 24 10.0 SSE 9 11 5 6 1012.4 1012.3 0.0
15/01:30am 22.3 20.1 0.8 24 9.8 SSW 2 6 1 3 1012.9 1012.8 0.0
15/01:00am 23.2 19.7 1.5 24 10.1 SSW 9 13 5 7 1012.9 1012.8 0.0
15/12:30am 24.7 20.5 1.6 22 10.9 S 13 17 7 9 1012.9 1012.8 0.0
15/12:00am 25.9 21.1 2.6 22 11.3 SSW 17 22 9 12 1012.6 1012.5 0.0
 
Date/Time
CDT
Temp
°C
App
Temp
°C
Dew
Point
°C
Rel
Hum
%
Delta-T
°C
Wind Press
QNH
hPa
Press
MSL
hPa
Rain since
9am
mm
Dir  Spd
km/h
Gust
km/h
Spd
kts
Gust
kts
14/11:30pm 26.9 21.4 2.1 20 12.0 SSW 20 24 11 13 1012.6 1012.5 0.0
14/11:00pm 26.9 21.1 2.1 20 12.0 SW 22 26 12 14 1012.6 1012.5 0.0
14/10:30pm 27.2 21.5 0.8 18 12.5 SW 20 24 11 13 1012.7 1012.6 0.0
14/10:00pm 26.3 21.1 0.1 18 12.2 WSW 17 20 9 11 1012.8 1012.7 0.0
14/09:30pm 26.0 21.0 -0.9 17 12.3 WSW 15 17 8 9 1012.7 1012.6 0.0
14/09:00pm 26.8 22.2 -1.1 16 12.8 WSW 13 15 7 8 1012.4 1012.3 0.0
14/08:30pm 28.8 24.7 -0.4 15 13.8 SW 11 15 6 8 1011.9 1011.7 0.0
14/08:00pm 30.2 25.6 -1.2 13 14.7 SW 13 17 7 9 1011.7 1011.5 0.0
14/07:30pm 30.7 26.9 -0.8 13 14.9 WSW 9 9 5 5 1011.5 1011.3 0.0
14/07:00pm 32.5 29.1 -0.5 12 15.9 SW 7 11 4 6 1011.2 1011.0 0.0
14/06:30pm 33.4 28.4 -1.0 11 16.6 SW 15 19 8 10 1011.1 1010.9 0.0
14/06:00pm 34.1 30.5 0.7 12 16.6 SW 9 19 5 10 1010.9 1010.7 0.0
14/05:30pm 33.8 29.2 1.6 13 16.2 SW 15 22 8 12 1010.8 1010.6 0.0
14/05:00pm 33.4 29.1 1.3 13 16.0 SW 13 22 7 12 1010.7 1010.5 0.0
14/04:30pm 33.5 28.7 2.4 14 15.9 SW 17 24 9 13 1011.0 1010.8 0.0
14/04:00pm 33.6 28.2 2.4 14 15.9 SW 20 30 11 16 1011.2 1011.0 0.0
14/03:30pm 33.1 28.4 3.0 15 15.5 SW 17 24 9 13 1011.5 1011.3 0.0
14/03:00pm 31.9 26.8 3.0 16 14.7 SW 19 28 10 15 1011.3 1011.1 0.0
14/02:30pm 32.4 26.8 3.4 16 14.9 SW 22 32 12 17 1011.9 1011.7 0.0
14/02:00pm 31.1 26.9 4.0 18 14.0 SSW 15 24 8 13 1011.8 1011.6 0.0
14/01:30pm 30.8 25.6 3.8 18 13.9 SSW 20 32 11 17 1012.0 1011.8 0.0
14/01:00pm 32.3 26.7 3.3 16 14.9 SSW 22 32 12 17 1012.7 1012.6 0.0
14/12:30pm 30.6 25.7 5.1 20 13.4 SSW 20 30 11 16 1012.6 1012.5 0.0
14/12:00pm 29.6 24.3 5.0 21 12.8 SSW 22 30 12 16 1012.0 1011.8 0.0
14/11:30am 29.2 24.2 6.6 24 12.0 SSW 22 33 12 18 1012.9 1012.8 0.0
14/11:00am 28.5 24.1 6.6 25 11.6 SSW 19 28 10 15 1012.7 1012.6 0.0
14/10:30am 27.0 22.4 6.4 27 10.8 S 20 35 11 19 1012.3 1012.2 0.0
14/10:00am 27.3 21.4 5.6 25 11.2 S 26 37 14 20 1012.2 1012.1 0.0
14/09:30am 26.6 20.3 3.8 23 11.4 S 26 32 14 17 1011.1 1010.9 0.0
14/09:00am 25.9 21.5 2.6 22 11.3 SSW 15 20 8 11 1011.9 1011.7 0.0
14/08:30am 25.2 18.3 2.6 23 11.0 S 28 37 15 20 1011.2 1011.0 0.0
14/08:00am 23.6 17.6 1.3 23 10.4 SSW 22 33 12 18 1011.1 1010.9 0.0
14/07:30am 23.2 16.6 -0.3 21 10.6 SSW 24 32 13 17 1011.1 1010.9 0.0
14/07:00am 22.7 16.0 -1.4 20 10.6 SSW 24 32 13 17 1010.5 1010.3 0.0
14/06:30am 22.4 14.6 -3.8 17 11.0 SSW 28 35 15 19 1009.8 1009.6 0.0
14/06:00am 22.7 14.5 -4.4 16 11.3 SSW 30 37 16 20 1009.2 1009.0 0.0
14/05:30am 23.2 14.9 -4.8 15 11.6 SW 30 39 16 21 1008.4 1008.2 0.0
14/05:00am 23.1 15.9 -4.9 15 11.6 SW 24 32 13 17 1007.6 1007.4 0.0
14/04:30am 22.6 16.7 -5.3 15 11.4 SW 17 20 9 11 1007.3 1007.1 0.0
14/04:00am 22.9 17.0 -6.0 14 11.7 WSW 17 22 9 12 1007.0 1006.8 0.0
14/03:30am 22.7 18.3 -6.1 14 11.6 WSW 9 13 5 7 1006.9 1006.7 0.0
14/03:00am 22.4 18.3 -6.4 14 11.5 WSW 7 13 4 7 1006.9 1006.7 0.0
14/02:30am 23.6 20.6 -5.4 14 12.0 S 2 6 1 3 1007.1 1006.9 0.0
14/02:00am 24.1 19.8 -5.0 14 12.1 SSW 9 11 5 6 1007.4 1007.2 0.0
14/01:30am 24.5 20.5 -5.7 13 12.5 SW 7 9 4 5 1007.3 1007.1 0.0
14/01:00am 26.1 22.1 -5.5 12 13.3 W 7 17 4 9 1007.6 1007.4 0.0
14/12:30am 26.3 21.6 -5.3 12 13.4 ESE 11 13 6 7 1007.2 1007.0 0.0
14/12:00am 28.0 22.5 -5.2 11 14.3 ESE 15 19 8 10 1007.3 1007.1 0.0
 
Date/Time
CDT
Temp
°C
App
Temp
°C
Dew
Point
°C
Rel
Hum
%
Delta-T
°C
Wind Press
QNH
hPa
Press
MSL
hPa
Rain since
9am
mm
Dir  Spd
km/h
Gust
km/h
Spd
kts
Gust
kts
13/11:30pm 29.2 24.1 -5.5 10 15.0 ESE 13 17 7 9 1007.4 1007.2 0.0
13/11:00pm 29.8 24.3 -5.1 10 15.2 E 15 20 8 11 1007.3 1007.1 0.0
13/10:30pm 30.6 24.3 -5.8 9 15.9 ENE 19 22 10 12 1007.3 1007.1 0.0
13/10:00pm 30.9 25.8 -5.6 9 15.9 ENE 13 17 7 9 1007.3 1007.1 0.0
13/09:30pm 31.6 26.5 -5.1 9 16.3 ENE 13 15 7 8 1006.8 1006.6 0.0
13/09:00pm 31.9 26.5 -4.9 9 16.5 ENE 15 19 8 10 1006.3 1006.1 0.0
13/08:30pm 31.8 26.7 -4.9 9 16.4 ENE 13 15 7 8 1006.0 1005.8 0.0
13/08:00pm 33.0 27.5 -5.6 8 17.2 ENE 15 19 8 10 1005.9 1005.7 0.0
13/07:30pm 33.7 27.9 -5.1 8 17.5 ENE 17 20 9 11 1005.6 1005.4 0.0
13/07:00pm 35.5 29.2 -5.5 7 18.6 NE 19 20 10 11 1005.6 1005.4 0.0
13/06:30pm 36.8 30.1 -4.6 7 19.3 NNE 22 28 12 15 1005.5 1005.3 0.0
13/06:00pm 37.7 29.5 -3.9 7 19.7 NNE 30 39 16 21 1005.5 1005.3 0.0
13/05:30pm 38.1 29.6 -3.7 7 19.9 NNE 32 41 17 22 1005.7 1005.5 0.0
13/05:00pm 38.1 29.6 -3.7 7 19.9 NNE 32 43 17 23 1005.9 1005.7 0.0
13/04:33pm 37.4 28.6 -4.2 7 19.5 NNE 33 52 18 28 1006.2 1006.0 0.0
13/04:30pm 37.5 28.3 -4.1 7 19.6 NNE 35 46 19 25 1006.2 1006.0 0.0
13/04:00pm 37.2 27.6 -4.3 7 19.4 NNE 37 48 20 26 1006.4 1006.2 0.0
13/03:30pm 37.0 27.0 -4.4 7 19.4 N 39 48 21 26 1006.8 1006.6 0.0
13/03:00pm 37.2 28.0 -4.3 7 19.5 N 35 46 19 25 1007.4 1007.2 0.0
13/02:37pm 37.2 27.6 -4.3 7 19.4 NNE 37 57 20 31 1007.8 1007.6 0.0
13/02:30pm 36.5 26.5 -4.8 7 19.1 NNE 39 50 21 27 1008.0 1007.8 0.0
13/02:00pm 36.0 26.0 -5.2 7 18.9 NNE 39 50 21 27 1008.6 1008.4 0.0
13/01:30pm 35.6 25.5 -5.5 7 18.7 NNE 39 54 21 29 1009.3 1009.1 0.0
13/01:00pm 34.9 25.2 -6.0 7 18.3 NNE 37 52 20 28 1010.3 1010.1 0.0
13/12:30pm 34.1 23.3 -4.8 8 17.7 NNE 43 56 23 30 1010.8 1010.6 0.0
13/12:00pm 33.2 23.1 -5.5 8 17.3 NNE 39 46 21 25 1011.4 1011.2 0.0
13/11:50am 31.9 21.4 -6.4 8 16.6 NNE 41 50 22 27 1011.6 1011.4 0.0
13/11:30am 32.4 21.0 -6.0 8 16.9 NNE 46 54 25 29 1011.8 1011.6 0.0
13/11:23am 32.5 21.6 -6.0 8 16.9 NNE 43 54 23 29 1011.9 1011.7 0.0
13/11:00am 31.2 20.8 -5.4 9 16.1 NNE 41 48 22 26 1012.2 1012.1 0.0
13/10:30am 29.3 19.9 -6.8 9 15.2 NE 35 46 19 25 1012.5 1012.4 0.0
13/10:00am 28.4 18.7 -6.1 10 14.6 NE 37 46 20 25 1012.7 1012.6 0.0
13/09:30am 26.9 17.0 -7.2 10 14.0 NE 37 46 20 25 1012.8 1012.7 0.0
13/09:21am 26.7 17.3 -6.2 11 13.7 NE 35 44 19 24 1012.9 1012.8 0.0
13/09:08am 25.8 15.6 -6.9 11 13.3 NE 39 46 21 25 1012.9 1012.8 0.0
13/09:00am 25.7 16.3 -6.9 11 13.3 NE 35 46 19 25 1012.8 1012.7 0.0
13/08:30am 24.0 15.2 -6.1 13 12.3 NE 32 43 17 23 1012.6 1012.5 0.0
13/08:00am 22.3 13.8 -6.5 14 11.4 ENE 30 37 16 20 1012.4 1012.3 0.0
13/07:30am 20.7 13.7 -6.8 15 10.7 ENE 22 28 12 15 1012.2 1012.1 0.0
13/07:00am 19.4 13.1 -6.2 17 9.9 ENE 19 24 10 13 1011.7 1011.5 0.0
13/06:30am 19.7 13.3 -6.8 16 10.2 ENE 19 22 10 12 1011.6 1011.4 0.0
13/06:00am 19.9 13.0 -6.6 16 10.3 ENE 22 28 12 15 1011.1 1010.9 0.0
13/05:30am 20.3 13.0 -6.3 16 10.4 ENE 24 28 13 15 1010.7 1010.5 0.0
13/05:00am 20.6 13.4 -5.3 17 10.4 ENE 24 30 13 16 1010.5 1010.3 0.0
13/04:30am 20.3 13.5 -5.5 17 10.3 ENE 22 30 12 16 1010.1 1009.9 0.0
13/04:00am 20.3 13.9 -4.8 18 10.1 E 20 24 11 13 1010.2 1010.0 0.0
13/03:30am 20.3 14.1 -4.8 18 10.1 E 19 22 10 12 1010.4 1010.2 0.0
13/03:00am 20.7 14.0 -4.4 18 10.2 E 22 24 12 13 1010.7 1010.5 0.0
13/02:30am 20.4 14.0 -4.7 18 10.1 E 20 22 11 12 1010.9 1010.7 0.0
13/02:00am 20.3 13.9 -4.8 18 10.1 E 20 22 11 12 1010.8 1010.6 0.0
13/01:30am 20.4 14.9 -5.4 17 10.3 E 15 17 8 9 1010.9 1010.7 0.0
13/01:00am 20.7 15.6 -5.2 17 10.4 ENE 13 17 7 9 1010.9 1010.7 0.0
13/12:30am 21.5 15.6 -5.3 16 10.8 E 17 19 9 10 1010.8 1010.6 0.0
13/12:00am 22.3 16.4 -5.6 15 11.3 E 17 20 9 11 1010.7 1010.5 0.0
 
Date/Time
CDT
Temp
°C
App
Temp
°C
Dew
Point
°C
Rel
Hum
%
Delta-T
°C
Wind Press
QNH
hPa
Press
MSL
hPa
Rain since
9am
mm
Dir  Spd
km/h
Gust
km/h
Spd
kts
Gust
kts
12/11:30pm 22.8 16.9 -6.1 14 11.6 E 17 19 9 10 1010.7 1010.5 0.0
12/11:00pm 23.1 17.1 -6.8 13 11.9 E 17 19 9 10 1010.6 1010.4 0.0
12/10:30pm 23.4 17.4 -6.5 13 12.0 E 17 20 9 11 1010.4 1010.2 0.0
12/10:00pm 23.8 17.7 -7.3 12 12.3 E 17 19 9 10 1010.3 1010.1 0.0
12/09:30pm 24.7 18.6 -7.7 11 12.9 E 17 19 9 10 1010.1 1009.9 0.0
12/09:00pm 25.6 19.6 -7.0 11 13.3 E 17 20 9 11 1009.9 1009.7 0.0
12/08:30pm 26.3 20.2 -7.7 10 13.8 E 17 19 9 10 1009.8 1009.6 0.0
12/08:00pm 27.4 21.8 -6.9 10 14.2 E 15 17 8 9 1009.5 1009.3 0.0
12/07:30pm 29.0 23.7 -7.0 9 15.1 ENE 13 15 7 8 1009.3 1009.1 0.0
12/07:00pm 31.3 27.5 -5.3 9 16.1 NE 6 9 3 5 1009.0 1008.8 0.0
12/06:30pm 32.0 28.1 -4.8 9 16.5 NNE 7 11 4 6 1008.7 1008.5 0.0
12/06:00pm 32.6 28.2 -5.9 8 17.0 NW 9 15 5 8 1008.6 1008.4 0.0
12/05:30pm 32.7 28.3 -5.8 8 17.0 NNE 9 13 5 7 1008.4 1008.2 0.0
12/05:00pm 32.5 28.7 -6.0 8 16.9 ESE 6 13 3 7 1008.1 1007.9 0.0
12/04:30pm 33.0 29.2 -5.6 8 17.2 NNE 6 13 3 7 1008.2 1008.0 0.0
12/04:00pm 33.0 27.9 -5.6 8 17.2 W 13 17 7 9 1008.4 1008.2 0.0
12/03:30pm 32.2 27.8 -6.2 8 16.8 NE 9 17 5 9 1008.6 1008.4 0.0
12/03:00pm 32.5 28.1 -6.0 8 17.0 E 9 19 5 10 1009.0 1008.8 0.0
12/02:30pm 32.0 28.1 -6.3 8 16.7 N 6 9 3 5 1009.5 1009.3 0.0
12/02:00pm 31.0 25.9 -5.5 9 16.0 N 13 17 7 9 1009.9 1009.7 0.0
12/01:30pm 31.6 25.8 -5.1 9 16.3 N 17 28 9 15 1010.4 1010.2 0.0
12/01:00pm 30.2 25.0 -6.1 9 15.6 NNE 13 19 7 10 1010.9 1010.7 0.0
12/12:30pm 30.0 24.8 -6.3 9 15.6 N 13 28 7 15 1011.5 1011.3 0.0
12/12:00pm 29.4 23.5 -5.4 10 15.1 N 17 24 9 13 1012.0 1011.8 0.0
12/11:30am 29.3 22.9 -5.4 10 15.0 N 20 30 11 16 1012.5 1012.4 0.0
12/11:00am 28.1 21.6 -6.3 10 14.5 N 20 28 11 15 1012.8 1012.7 0.0
12/10:30am 26.3 19.9 -5.3 12 13.3 NNE 20 28 11 15 1013.0 1012.9 0.0
12/10:00am 24.6 18.1 -5.6 13 12.5 NNE 20 26 11 14 1013.2 1013.1 0.0
12/09:30am 22.8 16.5 -6.1 14 11.6 NE 19 24 10 13 1013.1 1013.0 0.0
12/09:00am 20.8 15.2 -5.9 16 10.6 ENE 15 19 8 10 1013.1 1013.0 0.0
12/08:30am 19.4 13.8 -6.2 17 9.9 ENE 15 19 8 10 1012.8 1012.7 0.0
12/08:00am 16.9 11.6 -6.8 19 8.8 ENE 13 17 7 9 1012.6 1012.5 0.0
12/07:30am 14.6 9.2 -8.1 20 8.0 ENE 13 15 7 8 1012.3 1012.2 0.0
12/07:00am 13.7 8.4 -7.6 22 7.5 ENE 13 15 7 8 1011.9 1011.7 0.0
12/06:30am 13.1 7.7 -8.1 22 7.3 NE 13 15 7 8 1011.6 1011.4 0.0
12/06:00am 13.8 8.9 -7.5 22 7.5 NE 11 13 6 7 1011.4 1011.2 0.0
12/05:30am 13.8 8.4 -8.1 21 7.7 NNE 13 15 7 8 1011.1 1010.9 0.0
12/05:00am 14.5 8.8 -7.5 21 7.8 NE 15 17 8 9 1010.8 1010.6 0.0

Other formats

Comma delimited format used in spreadsheet applications
http://www.bom.gov.au/fwo/IDS60801/IDS60801.95481.axf

JavaScript Object Notation format (JSON) in row-major order
http://www.bom.gov.au/fwo/IDS60801/IDS60801.95481.json

Data quality

Most of these data are generated automatically and are frequently updated. Quality checks on data are not normally performed. It is possible for incorrect values to appear. Refer to information at About Latest Weather Observations and please check the disclaimer before using these data.